sensor_id;sensor_type;location;lat;lon;timestamp;P1;durP1;ratioP1;P2;durP2;ratioP2
71154;SDS011;59375;53.216;5.728;2022-07-23T00:01:15;7.28;;;4.20;;
71154;SDS011;59375;53.216;5.728;2022-07-23T00:03:41;6.53;;;4.22;;
71154;SDS011;59375;53.216;5.728;2022-07-23T00:06:06;7.20;;;4.22;;
71154;SDS011;59375;53.216;5.728;2022-07-23T00:08:32;7.18;;;4.50;;
71154;SDS011;59375;53.216;5.728;2022-07-23T00:10:58;8.00;;;4.57;;
71154;SDS011;59375;53.216;5.728;2022-07-23T00:13:23;8.55;;;4.55;;
71154;SDS011;59375;53.216;5.728;2022-07-23T00:15:49;5.53;;;4.00;;
71154;SDS011;59375;53.216;5.728;2022-07-23T00:18:15;6.55;;;4.47;;
71154;SDS011;59375;53.216;5.728;2022-07-23T00:20:40;6.20;;;4.18;;
71154;SDS011;59375;53.216;5.728;2022-07-23T00:23:06;8.60;;;4.30;;
71154;SDS011;59375;53.216;5.728;2022-07-23T00:25:31;6.95;;;4.32;;
71154;SDS011;59375;53.216;5.728;2022-07-23T00:27:57;6.00;;;4.47;;
71154;SDS011;59375;53.216;5.728;2022-07-23T00:30:24;7.05;;;4.30;;
71154;SDS011;59375;53.216;5.728;2022-07-23T00:32:54;6.75;;;4.40;;
71154;SDS011;59375;53.216;5.728;2022-07-23T00:35:25;8.32;;;4.75;;
71154;SDS011;59375;53.216;5.728;2022-07-23T00:37:52;7.38;;;4.53;;
71154;SDS011;59375;53.216;5.728;2022-07-23T00:40:18;6.70;;;4.53;;
71154;SDS011;59375;53.216;5.728;2022-07-23T00:42:43;7.32;;;4.25;;
71154;SDS011;59375;53.216;5.728;2022-07-23T00:45:09;7.82;;;4.32;;
71154;SDS011;59375;53.216;5.728;2022-07-23T00:47:35;6.57;;;4.38;;
71154;SDS011;59375;53.216;5.728;2022-07-23T00:50:01;5.88;;;3.10;;
71154;SDS011;59375;53.216;5.728;2022-07-23T00:52:28;7.93;;;3.10;;
71154;SDS011;59375;53.216;5.728;2022-07-23T00:54:54;6.15;;;3.00;;
71154;SDS011;59375;53.216;5.728;2022-07-23T00:57:20;4.78;;;2.75;;
71154;SDS011;59375;53.216;5.728;2022-07-23T00:59:45;4.40;;;2.78;;
71154;SDS011;59375;53.216;5.728;2022-07-23T01:02:11;6.05;;;4.05;;
71154;SDS011;59375;53.216;5.728;2022-07-23T01:04:37;7.07;;;4.32;;
71154;SDS011;59375;53.216;5.728;2022-07-23T01:07:02;6.70;;;4.25;;
71154;SDS011;59375;53.216;5.728;2022-07-23T01:09:28;7.43;;;4.28;;
71154;SDS011;59375;53.216;5.728;2022-07-23T01:11:55;7.05;;;4.25;;
71154;SDS011;59375;53.216;5.728;2022-07-23T01:14:21;8.18;;;4.57;;
71154;SDS011;59375;53.216;5.728;2022-07-23T01:16:47;7.68;;;4.30;;
71154;SDS011;59375;53.216;5.728;2022-07-23T01:19:14;6.63;;;4.22;;
71154;SDS011;59375;53.216;5.728;2022-07-23T01:21:41;8.75;;;4.70;;
71154;SDS011;59375;53.216;5.728;2022-07-23T01:24:09;5.40;;;3.13;;
71154;SDS011;59375;53.216;5.728;2022-07-23T01:26:36;3.67;;;2.22;;
71154;SDS011;59375;53.216;5.728;2022-07-23T01:29:02;3.08;;;1.98;;
71154;SDS011;59375;53.216;5.728;2022-07-23T01:31:29;4.10;;;2.15;;
71154;SDS011;59375;53.216;5.728;2022-07-23T01:33:54;4.20;;;2.72;;
71154;SDS011;59375;53.216;5.728;2022-07-23T01:36:20;5.00;;;2.97;;
71154;SDS011;59375;53.216;5.728;2022-07-23T01:38:45;7.88;;;4.28;;
71154;SDS011;59375;53.216;5.728;2022-07-23T01:41:11;7.30;;;4.38;;
71154;SDS011;59375;53.216;5.728;2022-07-23T01:43:37;7.35;;;4.40;;
71154;SDS011;59375;53.216;5.728;2022-07-23T01:46:02;6.80;;;4.28;;
71154;SDS011;59375;53.216;5.728;2022-07-23T01:48:28;5.72;;;4.15;;
71154;SDS011;59375;53.216;5.728;2022-07-23T01:50:53;9.25;;;4.13;;
71154;SDS011;59375;53.216;5.728;2022-07-23T01:53:19;7.55;;;4.20;;
71154;SDS011;59375;53.216;5.728;2022-07-23T01:55:44;6.47;;;4.30;;
71154;SDS011;59375;53.216;5.728;2022-07-23T01:58:10;7.88;;;4.20;;
71154;SDS011;59375;53.216;5.728;2022-07-23T02:00:35;7.63;;;4.80;;
71154;SDS011;59375;53.216;5.728;2022-07-23T02:03:01;8.68;;;4.22;;
71154;SDS011;59375;53.216;5.728;2022-07-23T02:05:27;8.50;;;3.97;;
71154;SDS011;59375;53.216;5.728;2022-07-23T02:07:57;6.93;;;3.90;;
71154;SDS011;59375;53.216;5.728;2022-07-23T02:10:23;6.85;;;4.15;;
71154;SDS011;59375;53.216;5.728;2022-07-23T02:12:49;5.95;;;3.75;;
71154;SDS011;59375;53.216;5.728;2022-07-23T02:15:14;7.13;;;4.22;;
71154;SDS011;59375;53.216;5.728;2022-07-23T02:17:40;6.43;;;3.97;;
71154;SDS011;59375;53.216;5.728;2022-07-23T02:20:07;6.80;;;4.03;;
71154;SDS011;59375;53.216;5.728;2022-07-23T02:22:34;9.07;;;4.22;;
71154;SDS011;59375;53.216;5.728;2022-07-23T02:25:00;7.45;;;4.15;;
71154;SDS011;59375;53.216;5.728;2022-07-23T02:27:25;6.28;;;4.10;;
71154;SDS011;59375;53.216;5.728;2022-07-23T02:29:51;7.47;;;4.07;;
71154;SDS011;59375;53.216;5.728;2022-07-23T02:32:16;8.90;;;4.22;;
71154;SDS011;59375;53.216;5.728;2022-07-23T02:34:42;7.07;;;4.00;;
71154;SDS011;59375;53.216;5.728;2022-07-23T02:37:08;6.25;;;4.10;;
71154;SDS011;59375;53.216;5.728;2022-07-23T02:39:33;7.18;;;3.78;;
71154;SDS011;59375;53.216;5.728;2022-07-23T02:42:00;8.25;;;3.83;;
71154;SDS011;59375;53.216;5.728;2022-07-23T02:44:26;6.93;;;3.47;;
71154;SDS011;59375;53.216;5.728;2022-07-23T02:46:51;6.55;;;3.00;;
71154;SDS011;59375;53.216;5.728;2022-07-23T02:49:17;5.93;;;2.90;;
71154;SDS011;59375;53.216;5.728;2022-07-23T02:51:42;5.07;;;3.10;;
71154;SDS011;59375;53.216;5.728;2022-07-23T02:54:08;6.28;;;3.40;;
71154;SDS011;59375;53.216;5.728;2022-07-23T02:56:33;4.93;;;3.22;;
71154;SDS011;59375;53.216;5.728;2022-07-23T02:58:59;6.85;;;3.80;;
71154;SDS011;59375;53.216;5.728;2022-07-23T03:01:24;5.45;;;2.88;;
71154;SDS011;59375;53.216;5.728;2022-07-23T03:03:50;5.03;;;2.90;;
71154;SDS011;59375;53.216;5.728;2022-07-23T03:06:16;4.15;;;2.80;;
71154;SDS011;59375;53.216;5.728;2022-07-23T03:08:41;5.05;;;3.10;;
71154;SDS011;59375;53.216;5.728;2022-07-23T03:11:07;5.35;;;3.10;;
71154;SDS011;59375;53.216;5.728;2022-07-23T03:13:36;5.20;;;3.20;;
71154;SDS011;59375;53.216;5.728;2022-07-23T03:16:02;6.03;;;4.10;;
71154;SDS011;59375;53.216;5.728;2022-07-23T03:18:28;5.35;;;4.05;;
71154;SDS011;59375;53.216;5.728;2022-07-23T03:20:54;6.97;;;4.03;;
71154;SDS011;59375;53.216;5.728;2022-07-23T03:23:19;7.68;;;4.07;;
71154;SDS011;59375;53.216;5.728;2022-07-23T03:25:45;7.38;;;4.40;;
71154;SDS011;59375;53.216;5.728;2022-07-23T03:28:13;7.10;;;4.00;;
71154;SDS011;59375;53.216;5.728;2022-07-23T03:30:40;8.95;;;4.50;;
71154;SDS011;59375;53.216;5.728;2022-07-23T03:33:06;7.18;;;4.30;;
71154;SDS011;59375;53.216;5.728;2022-07-23T03:35:32;8.13;;;4.35;;
71154;SDS011;59375;53.216;5.728;2022-07-23T03:37:57;6.30;;;3.97;;
71154;SDS011;59375;53.216;5.728;2022-07-23T03:40:23;5.60;;;4.05;;
71154;SDS011;59375;53.216;5.728;2022-07-23T03:42:48;7.13;;;4.20;;
71154;SDS011;59375;53.216;5.728;2022-07-23T03:45:14;6.28;;;4.35;;
71154;SDS011;59375;53.216;5.728;2022-07-23T03:47:39;8.15;;;3.70;;
71154;SDS011;59375;53.216;5.728;2022-07-23T03:50:05;7.07;;;4.00;;
71154;SDS011;59375;53.216;5.728;2022-07-23T03:52:31;8.45;;;3.80;;
71154;SDS011;59375;53.216;5.728;2022-07-23T03:54:57;6.10;;;3.85;;
71154;SDS011;59375;53.216;5.728;2022-07-23T03:57:22;4.63;;;3.47;;
71154;SDS011;59375;53.216;5.728;2022-07-23T03:59:48;5.90;;;3.40;;
71154;SDS011;59375;53.216;5.728;2022-07-23T04:02:13;8.35;;;3.80;;
71154;SDS011;59375;53.216;5.728;2022-07-23T04:04:39;6.53;;;3.67;;
71154;SDS011;59375;53.216;5.728;2022-07-23T04:07:04;7.00;;;3.63;;
71154;SDS011;59375;53.216;5.728;2022-07-23T04:09:31;4.97;;;3.92;;
71154;SDS011;59375;53.216;5.728;2022-07-23T04:11:57;6.63;;;3.50;;
71154;SDS011;59375;53.216;5.728;2022-07-23T04:14:22;7.28;;;4.20;;
71154;SDS011;59375;53.216;5.728;2022-07-23T04:16:48;6.95;;;4.40;;
71154;SDS011;59375;53.216;5.728;2022-07-23T04:19:13;7.90;;;3.97;;
71154;SDS011;59375;53.216;5.728;2022-07-23T04:21:39;7.68;;;3.90;;
71154;SDS011;59375;53.216;5.728;2022-07-23T04:24:04;6.95;;;3.83;;
71154;SDS011;59375;53.216;5.728;2022-07-23T04:26:30;6.15;;;4.00;;
71154;SDS011;59375;53.216;5.728;2022-07-23T04:28:56;8.60;;;4.00;;
71154;SDS011;59375;53.216;5.728;2022-07-23T04:31:21;7.18;;;3.75;;
71154;SDS011;59375;53.216;5.728;2022-07-23T04:33:47;6.32;;;4.10;;
71154;SDS011;59375;53.216;5.728;2022-07-23T04:36:12;7.05;;;3.97;;
71154;SDS011;59375;53.216;5.728;2022-07-23T04:38:38;8.82;;;4.00;;
71154;SDS011;59375;53.216;5.728;2022-07-23T04:41:03;7.82;;;3.90;;
71154;SDS011;59375;53.216;5.728;2022-07-23T04:43:29;5.72;;;3.72;;
71154;SDS011;59375;53.216;5.728;2022-07-23T04:45:54;5.53;;;3.38;;
71154;SDS011;59375;53.216;5.728;2022-07-23T04:48:20;7.57;;;4.00;;
71154;SDS011;59375;53.216;5.728;2022-07-23T04:50:45;7.15;;;3.80;;
71154;SDS011;59375;53.216;5.728;2022-07-23T04:53:11;5.40;;;3.70;;
71154;SDS011;59375;53.216;5.728;2022-07-23T04:55:36;6.90;;;3.60;;
71154;SDS011;59375;53.216;5.728;2022-07-23T04:58:02;6.25;;;3.67;;
71154;SDS011;59375;53.216;5.728;2022-07-23T05:00:27;5.85;;;3.70;;
71154;SDS011;59375;53.216;5.728;2022-07-23T05:02:53;7.90;;;3.83;;
71154;SDS011;59375;53.216;5.728;2022-07-23T05:05:19;7.10;;;3.67;;
71154;SDS011;59375;53.216;5.728;2022-07-23T05:07:44;6.07;;;3.40;;
71154;SDS011;59375;53.216;5.728;2022-07-23T05:10:10;4.93;;;3.45;;
71154;SDS011;59375;53.216;5.728;2022-07-23T05:12:35;6.35;;;3.65;;
71154;SDS011;59375;53.216;5.728;2022-07-23T05:15:01;8.35;;;3.55;;
71154;SDS011;59375;53.216;5.728;2022-07-23T05:17:26;5.35;;;3.25;;
71154;SDS011;59375;53.216;5.728;2022-07-23T05:19:52;5.18;;;3.38;;
71154;SDS011;59375;53.216;5.728;2022-07-23T05:22:17;6.82;;;3.10;;
71154;SDS011;59375;53.216;5.728;2022-07-23T05:24:43;7.20;;;3.20;;
71154;SDS011;59375;53.216;5.728;2022-07-23T05:27:08;5.38;;;3.30;;
71154;SDS011;59375;53.216;5.728;2022-07-23T05:29:34;5.68;;;3.20;;
71154;SDS011;59375;53.216;5.728;2022-07-23T05:31:59;6.45;;;3.13;;
71154;SDS011;59375;53.216;5.728;2022-07-23T05:34:25;5.68;;;2.90;;
71154;SDS011;59375;53.216;5.728;2022-07-23T05:36:50;5.72;;;2.83;;
71154;SDS011;59375;53.216;5.728;2022-07-23T05:39:16;5.18;;;2.58;;
71154;SDS011;59375;53.216;5.728;2022-07-23T05:41:41;4.53;;;2.40;;
71154;SDS011;59375;53.216;5.728;2022-07-23T05:44:07;6.32;;;2.50;;
71154;SDS011;59375;53.216;5.728;2022-07-23T05:46:33;4.43;;;2.35;;
71154;SDS011;59375;53.216;5.728;2022-07-23T05:48:58;4.35;;;2.10;;
71154;SDS011;59375;53.216;5.728;2022-07-23T05:51:24;3.72;;;1.90;;
71154;SDS011;59375;53.216;5.728;2022-07-23T05:53:50;5.57;;;1.90;;
71154;SDS011;59375;53.216;5.728;2022-07-23T05:56:16;3.47;;;1.70;;
71154;SDS011;59375;53.216;5.728;2022-07-23T05:58:42;3.47;;;1.75;;
71154;SDS011;59375;53.216;5.728;2022-07-23T06:01:08;3.08;;;1.73;;
71154;SDS011;59375;53.216;5.728;2022-07-23T06:03:34;3.67;;;1.58;;
71154;SDS011;59375;53.216;5.728;2022-07-23T06:06:00;3.63;;;1.80;;
71154;SDS011;59375;53.216;5.728;2022-07-23T06:08:25;3.40;;;1.42;;
71154;SDS011;59375;53.216;5.728;2022-07-23T06:10:51;4.32;;;1.52;;
71154;SDS011;59375;53.216;5.728;2022-07-23T06:13:19;5.15;;;1.75;;
71154;SDS011;59375;53.216;5.728;2022-07-23T06:15:45;3.28;;;1.55;;
71154;SDS011;59375;53.216;5.728;2022-07-23T06:18:11;3.20;;;1.50;;
71154;SDS011;59375;53.216;5.728;2022-07-23T06:20:36;2.47;;;1.42;;
71154;SDS011;59375;53.216;5.728;2022-07-23T06:23:02;1.75;;;1.40;;
71154;SDS011;59375;53.216;5.728;2022-07-23T06:25:28;3.03;;;1.38;;
71154;SDS011;59375;53.216;5.728;2022-07-23T06:27:54;3.25;;;1.50;;
71154;SDS011;59375;53.216;5.728;2022-07-23T06:30:19;2.55;;;1.40;;
71154;SDS011;59375;53.216;5.728;2022-07-23T06:32:45;3.72;;;1.52;;
71154;SDS011;59375;53.216;5.728;2022-07-23T06:35:12;3.55;;;1.77;;
71154;SDS011;59375;53.216;5.728;2022-07-23T06:37:37;6.13;;;1.50;;
71154;SDS011;59375;53.216;5.728;2022-07-23T06:40:03;2.95;;;1.48;;
71154;SDS011;59375;53.216;5.728;2022-07-23T06:42:29;3.90;;;1.40;;
71154;SDS011;59375;53.216;5.728;2022-07-23T06:44:55;2.60;;;1.40;;
71154;SDS011;59375;53.216;5.728;2022-07-23T06:47:21;5.15;;;1.50;;
71154;SDS011;59375;53.216;5.728;2022-07-23T06:49:46;2.63;;;1.40;;
71154;SDS011;59375;53.216;5.728;2022-07-23T06:52:12;5.65;;;1.65;;
71154;SDS011;59375;53.216;5.728;2022-07-23T06:54:37;3.13;;;1.35;;
71154;SDS011;59375;53.216;5.728;2022-07-23T06:57:03;4.85;;;1.50;;
71154;SDS011;59375;53.216;5.728;2022-07-23T06:59:28;2.97;;;1.27;;
71154;SDS011;59375;53.216;5.728;2022-07-23T07:01:54;1.73;;;1.30;;
71154;SDS011;59375;53.216;5.728;2022-07-23T07:04:19;1.75;;;1.30;;
71154;SDS011;59375;53.216;5.728;2022-07-23T07:06:45;2.40;;;1.30;;
71154;SDS011;59375;53.216;5.728;2022-07-23T07:09:10;3.20;;;1.50;;
71154;SDS011;59375;53.216;5.728;2022-07-23T07:11:36;4.03;;;1.63;;
71154;SDS011;59375;53.216;5.728;2022-07-23T07:14:01;2.67;;;1.35;;
71154;SDS011;59375;53.216;5.728;2022-07-23T07:16:27;4.82;;;1.60;;
71154;SDS011;59375;53.216;5.728;2022-07-23T07:18:52;4.32;;;1.50;;
71154;SDS011;59375;53.216;5.728;2022-07-23T07:21:18;3.67;;;1.63;;
71154;SDS011;59375;53.216;5.728;2022-07-23T07:23:44;4.20;;;1.40;;
71154;SDS011;59375;53.216;5.728;2022-07-23T07:26:09;3.17;;;1.50;;
71154;SDS011;59375;53.216;5.728;2022-07-23T07:28:35;1.77;;;1.20;;
71154;SDS011;59375;53.216;5.728;2022-07-23T07:31:00;1.98;;;1.23;;
71154;SDS011;59375;53.216;5.728;2022-07-23T07:33:26;2.15;;;1.40;;
71154;SDS011;59375;53.216;5.728;2022-07-23T07:35:52;3.30;;;1.40;;
71154;SDS011;59375;53.216;5.728;2022-07-23T07:38:17;3.55;;;1.60;;
71154;SDS011;59375;53.216;5.728;2022-07-23T07:40:43;4.10;;;1.42;;
71154;SDS011;59375;53.216;5.728;2022-07-23T07:43:08;1.88;;;1.30;;
71154;SDS011;59375;53.216;5.728;2022-07-23T07:45:34;4.90;;;1.70;;
71154;SDS011;59375;53.216;5.728;2022-07-23T07:47:59;3.92;;;1.42;;
71154;SDS011;59375;53.216;5.728;2022-07-23T07:50:25;2.70;;;1.50;;
71154;SDS011;59375;53.216;5.728;2022-07-23T07:52:51;3.05;;;1.50;;
71154;SDS011;59375;53.216;5.728;2022-07-23T07:55:16;3.17;;;1.30;;
71154;SDS011;59375;53.216;5.728;2022-07-23T07:57:42;4.13;;;1.50;;
71154;SDS011;59375;53.216;5.728;2022-07-23T08:00:08;3.10;;;1.50;;
71154;SDS011;59375;53.216;5.728;2022-07-23T08:02:42;3.20;;;1.60;;
71154;SDS011;59375;53.216;5.728;2022-07-23T08:07:46;3.75;;;1.55;;
71154;SDS011;59375;53.216;5.728;2022-07-23T08:10:11;2.17;;;1.30;;
71154;SDS011;59375;53.216;5.728;2022-07-23T08:12:41;2.72;;;1.38;;
71154;SDS011;59375;53.216;5.728;2022-07-23T08:15:10;3.00;;;1.50;;
71154;SDS011;59375;53.216;5.728;2022-07-23T08:17:36;3.70;;;1.55;;
71154;SDS011;59375;53.216;5.728;2022-07-23T08:20:02;4.75;;;1.60;;
71154;SDS011;59375;53.216;5.728;2022-07-23T08:22:44;2.78;;;1.50;;
71154;SDS011;59375;53.216;5.728;2022-07-23T08:25:15;4.00;;;1.50;;
71154;SDS011;59375;53.216;5.728;2022-07-23T08:27:41;3.60;;;1.60;;
71154;SDS011;59375;53.216;5.728;2022-07-23T08:30:08;3.38;;;1.60;;
71154;SDS011;59375;53.216;5.728;2022-07-23T08:32:47;5.00;;;1.70;;
71154;SDS011;59375;53.216;5.728;2022-07-23T08:35:13;3.28;;;1.60;;
71154;SDS011;59375;53.216;5.728;2022-07-23T08:37:39;3.25;;;1.60;;
71154;SDS011;59375;53.216;5.728;2022-07-23T08:40:05;3.28;;;1.60;;
71154;SDS011;59375;53.216;5.728;2022-07-23T08:42:30;3.03;;;1.67;;
71154;SDS011;59375;53.216;5.728;2022-07-23T08:45:00;4.50;;;2.00;;
71154;SDS011;59375;53.216;5.728;2022-07-23T08:47:27;3.03;;;1.60;;
71154;SDS011;59375;53.216;5.728;2022-07-23T08:49:54;2.28;;;1.50;;
71154;SDS011;59375;53.216;5.728;2022-07-23T08:52:21;6.10;;;1.90;;
71154;SDS011;59375;53.216;5.728;2022-07-23T08:54:48;4.55;;;1.67;;
71154;SDS011;59375;53.216;5.728;2022-07-23T08:57:14;3.30;;;1.77;;
71154;SDS011;59375;53.216;5.728;2022-07-23T08:59:40;4.68;;;1.80;;
71154;SDS011;59375;53.216;5.728;2022-07-23T09:02:06;4.97;;;1.90;;
71154;SDS011;59375;53.216;5.728;2022-07-23T09:04:31;3.05;;;1.70;;
71154;SDS011;59375;53.216;5.728;2022-07-23T09:06:57;2.83;;;1.60;;
71154;SDS011;59375;53.216;5.728;2022-07-23T09:09:24;3.78;;;1.70;;
71154;SDS011;59375;53.216;5.728;2022-07-23T09:12:02;2.85;;;1.70;;
71154;SDS011;59375;53.216;5.728;2022-07-23T09:14:41;4.07;;;1.73;;
71154;SDS011;59375;53.216;5.728;2022-07-23T09:17:15;6.97;;;1.98;;
71154;SDS011;59375;53.216;5.728;2022-07-23T09:27:44;2.78;;;1.60;;
71154;SDS011;59375;53.216;5.728;2022-07-23T09:30:10;5.03;;;1.70;;
71154;SDS011;59375;53.216;5.728;2022-07-23T09:32:36;3.33;;;1.80;;
71154;SDS011;59375;53.216;5.728;2022-07-23T09:35:01;3.97;;;1.88;;
71154;SDS011;59375;53.216;5.728;2022-07-23T09:37:27;3.58;;;1.75;;
71154;SDS011;59375;53.216;5.728;2022-07-23T09:39:53;3.22;;;1.58;;
71154;SDS011;59375;53.216;5.728;2022-07-23T09:42:38;3.00;;;1.67;;
71154;SDS011;59375;53.216;5.728;2022-07-23T09:45:03;2.60;;;1.60;;
71154;SDS011;59375;53.216;5.728;2022-07-23T09:47:35;3.78;;;1.90;;
71154;SDS011;59375;53.216;5.728;2022-07-23T09:52:32;2.45;;;1.42;;
71154;SDS011;59375;53.216;5.728;2022-07-23T09:55:00;3.60;;;1.70;;
71154;SDS011;59375;53.216;5.728;2022-07-23T09:57:27;3.88;;;1.73;;
71154;SDS011;59375;53.216;5.728;2022-07-23T09:59:53;2.88;;;1.50;;
71154;SDS011;59375;53.216;5.728;2022-07-23T10:02:22;2.40;;;1.52;;
71154;SDS011;59375;53.216;5.728;2022-07-23T10:04:49;2.53;;;1.52;;
71154;SDS011;59375;53.216;5.728;2022-07-23T10:07:17;4.35;;;1.77;;
71154;SDS011;59375;53.216;5.728;2022-07-23T10:09:48;4.82;;;1.90;;
71154;SDS011;59375;53.216;5.728;2022-07-23T10:12:17;3.10;;;1.50;;
71154;SDS011;59375;53.216;5.728;2022-07-23T10:15:01;4.97;;;1.70;;
71154;SDS011;59375;53.216;5.728;2022-07-23T10:17:28;5.30;;;1.70;;
71154;SDS011;59375;53.216;5.728;2022-07-23T10:19:54;3.00;;;1.60;;
71154;SDS011;59375;53.216;5.728;2022-07-23T10:30:18;2.33;;;1.50;;
71154;SDS011;59375;53.216;5.728;2022-07-23T10:33:09;4.43;;;1.70;;
71154;SDS011;59375;53.216;5.728;2022-07-23T10:38:27;2.55;;;1.60;;
71154;SDS011;59375;53.216;5.728;2022-07-23T10:40:59;2.97;;;1.60;;
71154;SDS011;59375;53.216;5.728;2022-07-23T10:43:27;3.85;;;1.90;;
71154;SDS011;59375;53.216;5.728;2022-07-23T10:45:54;3.05;;;1.70;;
71154;SDS011;59375;53.216;5.728;2022-07-23T10:59:19;3.90;;;1.60;;
71154;SDS011;59375;53.216;5.728;2022-07-23T11:01:44;5.43;;;1.70;;
71154;SDS011;59375;53.216;5.728;2022-07-23T11:04:10;4.15;;;1.70;;
71154;SDS011;59375;53.216;5.728;2022-07-23T11:20:17;3.88;;;1.52;;
71154;SDS011;59375;53.216;5.728;2022-07-23T11:25:10;3.78;;;1.60;;
71154;SDS011;59375;53.216;5.728;2022-07-23T11:27:40;3.17;;;1.63;;
71154;SDS011;59375;53.216;5.728;2022-07-23T11:30:08;2.53;;;1.55;;
71154;SDS011;59375;53.216;5.728;2022-07-23T11:32:39;4.47;;;1.77;;
71154;SDS011;59375;53.216;5.728;2022-07-23T11:35:25;3.78;;;1.65;;
71154;SDS011;59375;53.216;5.728;2022-07-23T11:37:53;4.63;;;1.60;;
71154;SDS011;59375;53.216;5.728;2022-07-23T11:40:27;4.10;;;1.83;;
71154;SDS011;59375;53.216;5.728;2022-07-23T11:45:33;3.28;;;1.50;;
71154;SDS011;59375;53.216;5.728;2022-07-23T11:48:03;4.75;;;1.70;;
71154;SDS011;59375;53.216;5.728;2022-07-23T11:50:30;3.40;;;1.70;;
71154;SDS011;59375;53.216;5.728;2022-07-23T11:52:56;2.65;;;1.60;;
71154;SDS011;59375;53.216;5.728;2022-07-23T11:55:22;2.40;;;1.50;;
71154;SDS011;59375;53.216;5.728;2022-07-23T11:57:50;3.42;;;1.80;;
71154;SDS011;59375;53.216;5.728;2022-07-23T12:00:20;4.47;;;1.75;;
71154;SDS011;59375;53.216;5.728;2022-07-23T12:02:48;3.55;;;1.80;;
71154;SDS011;59375;53.216;5.728;2022-07-23T12:05:18;2.90;;;1.70;;
71154;SDS011;59375;53.216;5.728;2022-07-23T12:07:46;3.22;;;1.60;;
71154;SDS011;59375;53.216;5.728;2022-07-23T12:10:18;4.38;;;1.90;;
71154;SDS011;59375;53.216;5.728;2022-07-23T12:15:17;4.15;;;1.77;;
71154;SDS011;59375;53.216;5.728;2022-07-23T12:17:47;4.55;;;1.58;;
71154;SDS011;59375;53.216;5.728;2022-07-23T12:20:15;3.25;;;1.52;;
71154;SDS011;59375;53.216;5.728;2022-07-23T12:22:46;4.20;;;1.60;;
71154;SDS011;59375;53.216;5.728;2022-07-23T12:25:14;6.82;;;1.90;;
71154;SDS011;59375;53.216;5.728;2022-07-23T12:27:42;4.38;;;1.80;;
71154;SDS011;59375;53.216;5.728;2022-07-23T12:32:46;4.65;;;1.63;;
71154;SDS011;59375;53.216;5.728;2022-07-23T12:35:13;3.47;;;1.67;;
71154;SDS011;59375;53.216;5.728;2022-07-23T12:37:40;3.63;;;1.70;;
71154;SDS011;59375;53.216;5.728;2022-07-23T12:42:49;3.65;;;1.83;;
71154;SDS011;59375;53.216;5.728;2022-07-23T12:45:17;4.05;;;1.92;;
71154;SDS011;59375;53.216;5.728;2022-07-23T12:53:06;5.18;;;2.00;;
71154;SDS011;59375;53.216;5.728;2022-07-23T12:55:36;3.17;;;1.70;;
71154;SDS011;59375;53.216;5.728;2022-07-23T12:58:04;4.72;;;2.13;;
71154;SDS011;59375;53.216;5.728;2022-07-23T13:03:29;4.30;;;1.90;;
71154;SDS011;59375;53.216;5.728;2022-07-23T13:05:58;4.63;;;1.90;;
71154;SDS011;59375;53.216;5.728;2022-07-23T13:08:25;5.15;;;1.90;;
71154;SDS011;59375;53.216;5.728;2022-07-23T13:10:52;4.05;;;1.80;;
71154;SDS011;59375;53.216;5.728;2022-07-23T13:13:22;6.30;;;2.10;;
71154;SDS011;59375;53.216;5.728;2022-07-23T13:15:49;4.55;;;2.10;;
71154;SDS011;59375;53.216;5.728;2022-07-23T13:18:16;5.28;;;2.10;;
71154;SDS011;59375;53.216;5.728;2022-07-23T13:20:43;4.78;;;2.15;;
71154;SDS011;59375;53.216;5.728;2022-07-23T13:23:09;4.32;;;2.03;;
71154;SDS011;59375;53.216;5.728;2022-07-23T13:25:35;5.80;;;2.25;;
71154;SDS011;59375;53.216;5.728;2022-07-23T13:28:01;6.10;;;2.20;;
71154;SDS011;59375;53.216;5.728;2022-07-23T13:30:27;4.72;;;2.40;;
71154;SDS011;59375;53.216;5.728;2022-07-23T13:32:53;4.57;;;2.17;;
71154;SDS011;59375;53.216;5.728;2022-07-23T13:35:18;6.07;;;2.45;;
71154;SDS011;59375;53.216;5.728;2022-07-23T13:37:44;4.20;;;2.00;;
71154;SDS011;59375;53.216;5.728;2022-07-23T13:40:09;7.57;;;2.30;;
71154;SDS011;59375;53.216;5.728;2022-07-23T13:42:35;4.35;;;2.13;;
71154;SDS011;59375;53.216;5.728;2022-07-23T13:45:02;4.10;;;2.00;;
71154;SDS011;59375;53.216;5.728;2022-07-23T13:47:29;4.30;;;2.47;;
71154;SDS011;59375;53.216;5.728;2022-07-23T13:49:54;4.20;;;2.33;;
71154;SDS011;59375;53.216;5.728;2022-07-23T13:52:20;4.40;;;2.42;;
71154;SDS011;59375;53.216;5.728;2022-07-23T13:54:45;5.80;;;2.63;;
71154;SDS011;59375;53.216;5.728;2022-07-23T13:57:11;4.93;;;2.20;;
71154;SDS011;59375;53.216;5.728;2022-07-23T13:59:36;4.40;;;2.28;;
71154;SDS011;59375;53.216;5.728;2022-07-23T14:02:03;4.80;;;2.10;;
71154;SDS011;59375;53.216;5.728;2022-07-23T14:04:29;4.22;;;2.38;;
71154;SDS011;59375;53.216;5.728;2022-07-23T14:06:55;6.45;;;2.35;;
71154;SDS011;59375;53.216;5.728;2022-07-23T14:09:20;5.35;;;2.30;;
71154;SDS011;59375;53.216;5.728;2022-07-23T14:11:47;6.38;;;2.45;;
71154;SDS011;59375;53.216;5.728;2022-07-23T14:14:12;4.85;;;2.63;;
71154;SDS011;59375;53.216;5.728;2022-07-23T14:16:38;5.82;;;2.70;;
71154;SDS011;59375;53.216;5.728;2022-07-23T14:19:03;5.00;;;2.30;;
71154;SDS011;59375;53.216;5.728;2022-07-23T14:21:29;4.82;;;2.20;;
71154;SDS011;59375;53.216;5.728;2022-07-23T14:23:55;5.38;;;2.42;;
71154;SDS011;59375;53.216;5.728;2022-07-23T14:26:20;4.03;;;2.33;;
71154;SDS011;59375;53.216;5.728;2022-07-23T14:28:46;4.82;;;2.47;;
71154;SDS011;59375;53.216;5.728;2022-07-23T14:31:11;4.63;;;2.70;;
71154;SDS011;59375;53.216;5.728;2022-07-23T14:33:37;6.10;;;2.60;;
71154;SDS011;59375;53.216;5.728;2022-07-23T14:36:02;5.57;;;3.00;;
71154;SDS011;59375;53.216;5.728;2022-07-23T14:38:28;5.25;;;2.10;;
71154;SDS011;59375;53.216;5.728;2022-07-23T14:40:55;4.47;;;2.25;;
71154;SDS011;59375;53.216;5.728;2022-07-23T14:43:22;4.68;;;2.30;;
71154;SDS011;59375;53.216;5.728;2022-07-23T14:45:47;5.80;;;2.50;;
71154;SDS011;59375;53.216;5.728;2022-07-23T14:48:13;5.18;;;2.40;;
71154;SDS011;59375;53.216;5.728;2022-07-23T14:50:38;7.40;;;2.60;;
71154;SDS011;59375;53.216;5.728;2022-07-23T14:53:04;4.28;;;2.22;;
71154;SDS011;59375;53.216;5.728;2022-07-23T14:55:31;5.65;;;2.53;;
71154;SDS011;59375;53.216;5.728;2022-07-23T14:57:57;4.95;;;2.60;;
71154;SDS011;59375;53.216;5.728;2022-07-23T15:00:22;4.53;;;2.30;;
71154;SDS011;59375;53.216;5.728;2022-07-23T15:02:48;5.20;;;2.53;;
71154;SDS011;59375;53.216;5.728;2022-07-23T15:05:13;15.30;;;2.42;;
71154;SDS011;59375;53.216;5.728;2022-07-23T15:07:39;5.43;;;2.70;;
71154;SDS011;59375;53.216;5.728;2022-07-23T15:10:05;4.38;;;2.58;;
71154;SDS011;59375;53.216;5.728;2022-07-23T15:12:31;3.95;;;2.60;;
71154;SDS011;59375;53.216;5.728;2022-07-23T15:14:56;6.10;;;2.92;;
71154;SDS011;59375;53.216;5.728;2022-07-23T15:17:22;5.47;;;2.70;;
71154;SDS011;59375;53.216;5.728;2022-07-23T15:19:47;6.38;;;2.50;;
71154;SDS011;59375;53.216;5.728;2022-07-23T15:22:13;5.07;;;2.50;;
71154;SDS011;59375;53.216;5.728;2022-07-23T15:24:38;4.90;;;2.42;;
71154;SDS011;59375;53.216;5.728;2022-07-23T15:27:04;5.85;;;2.50;;
71154;SDS011;59375;53.216;5.728;2022-07-23T15:29:29;7.65;;;2.60;;
71154;SDS011;59375;53.216;5.728;2022-07-23T15:31:55;5.07;;;2.63;;
71154;SDS011;59375;53.216;5.728;2022-07-23T15:34:21;5.85;;;2.60;;
71154;SDS011;59375;53.216;5.728;2022-07-23T15:36:46;5.60;;;2.75;;
71154;SDS011;59375;53.216;5.728;2022-07-23T15:39:12;5.95;;;2.67;;
71154;SDS011;59375;53.216;5.728;2022-07-23T15:41:38;4.15;;;2.35;;
71154;SDS011;59375;53.216;5.728;2022-07-23T15:44:03;5.28;;;2.40;;
71154;SDS011;59375;53.216;5.728;2022-07-23T15:46:29;4.00;;;2.42;;
71154;SDS011;59375;53.216;5.728;2022-07-23T15:48:55;4.22;;;2.40;;
71154;SDS011;59375;53.216;5.728;2022-07-23T15:51:20;4.82;;;2.50;;
71154;SDS011;59375;53.216;5.728;2022-07-23T15:53:46;4.22;;;2.40;;